Time,TemperatureF,DewpointF,PressureIn,WindDirection,WindDirectionDegrees,WindSpeedMPH,WindSpeedGustMPH,Humidity,HourlyPrecipIn,Conditions,Clouds,dailyrainin,SoftwareType,DateUTC
2013-05-28 00:02:00,57.0,48.0,30.02,ESE,120,8.0,-999.0,71,0.00,,,-99.99,,2013-05-28 04:02:00,
2013-05-28 00:12:00,55.0,48.0,30.02,SE,130,7.0,-999.0,76,0.00,,,-99.99,,2013-05-28 04:12:00,
2013-05-28 00:22:00,55.0,48.0,30.02,SE,140,12.0,16.0,76,0.00,,,-99.99,,2013-05-28 04:22:00,
2013-05-28 00:32:00,55.0,48.0,30.02,SE,130,8.0,16.0,76,0.00,,,-99.99,,2013-05-28 04:32:00,
2013-05-28 00:42:00,55.0,48.0,30.02,SE,130,5.0,16.0,76,0.00,,,-99.99,,2013-05-28 04:42:00,
2013-05-28 00:52:00,55.0,48.0,30.02,SE,130,8.0,-999.0,76,0.00,,,-99.99,,2013-05-28 04:52:00,
2013-05-28 01:01:00,55.0,48.0,30.02,SE,130,8.0,-999.0,76,0.00,,,-99.99,,2013-05-28 05:01:00,
2013-05-28 01:12:00,55.0,46.0,30.01,ESE,110,9.0,-999.0,71,0.00,,,-99.99,,2013-05-28 05:12:00,
2013-05-28 01:22:00,54.0,48.0,30.01,SE,130,10.0,-999.0,81,0.00,,,-99.99,,2013-05-28 05:22:00,
2013-05-28 01:32:00,54.0,48.0,30.01,SE,130,10.0,-999.0,81,0.00,,,-99.99,,2013-05-28 05:32:00,
2013-05-28 01:42:00,54.0,48.0,30.01,ESE,120,9.0,-999.0,81,0.00,,,-99.99,,2013-05-28 05:42:00,
2013-05-28 01:52:00,54.0,50.0,30.00,ESE,110,6.0,-999.0,87,0.00,,,-99.99,,2013-05-28 05:52:00,
2013-05-28 02:02:00,54.0,50.0,30.00,ESE,110,6.0,-999.0,87,0.00,,,-99.99,,2013-05-28 06:02:00,
2013-05-28 02:11:00,54.0,52.0,30.00,East,90,6.0,-999.0,93,0.00,,,-99.99,,2013-05-28 06:11:00,
2013-05-28 02:21:00,52.0,52.0,29.99,East,80,5.0,-999.0,100,0.00,,,-99.99,,2013-05-28 06:21:00,
2013-05-28 02:31:00,52.0,52.0,29.99,East,80,5.0,-999.0,100,0.00,,,-99.99,,2013-05-28 06:31:00,
2013-05-28 02:41:00,52.0,52.0,29.99,East,80,5.0,-999.0,100,0.00,,,-99.99,,2013-05-28 06:41:00,
2013-05-28 02:51:00,52.0,52.0,29.97,East,90,7.0,-999.0,100,0.00,,,-99.99,,2013-05-28 06:51:00,
2013-05-28 03:01:00,52.0,52.0,29.97,East,90,7.0,-999.0,100,0.00,,,-99.99,,2013-05-28 07:01:00,
2013-05-28 03:11:00,52.0,52.0,29.97,East,90,6.0,-999.0,100,0.00,,,-99.99,,2013-05-28 07:11:00,
2013-05-28 03:21:00,52.0,52.0,29.95,East,90,8.0,-999.0,100,0.00,,,-99.99,,2013-05-28 07:21:00,
2013-05-28 03:31:00,52.0,52.0,29.97,East,80,5.0,-999.0,100,0.00,,,-99.99,,2013-05-28 07:31:00,
2013-05-28 03:41:00,54.0,52.0,29.97,East,100,3.0,-999.0,93,0.00,,,-99.99,,2013-05-28 07:41:00,
2013-05-28 03:52:00,54.0,52.0,29.97,ESE,120,8.0,-999.0,93,0.00,,,-99.99,,2013-05-28 07:52:00,
2013-05-28 04:01:00,54.0,52.0,29.97,ESE,120,8.0,-999.0,93,0.00,,,-99.99,,2013-05-28 08:01:00,
2013-05-28 04:11:00,54.0,52.0,29.95,East,90,5.0,-999.0,93,0.00,,,-99.99,,2013-05-28 08:11:00,
2013-05-28 04:21:00,54.0,52.0,29.95,ESE,110,6.0,-999.0,93,0.00,,,-99.99,,2013-05-28 08:21:00,
2013-05-28 04:31:00,54.0,52.0,29.95,ESE,110,5.0,-999.0,93,0.00,,,-99.99,,2013-05-28 08:31:00,
2013-05-28 04:41:00,54.0,52.0,29.95,ESE,110,5.0,-999.0,93,0.00,,,-99.99,,2013-05-28 08:41:00,
2013-05-28 04:51:00,54.0,52.0,29.94,East,100,7.0,-999.0,93,0.00,,,-99.99,,2013-05-28 08:51:00,
2013-05-28 05:01:00,54.0,52.0,29.94,East,100,7.0,-999.0,93,0.00,,,-99.99,,2013-05-28 09:01:00,
2013-05-28 05:11:00,54.0,52.0,29.93,East,100,5.0,-999.0,93,0.00,,,-99.99,,2013-05-28 09:11:00,
2013-05-28 05:21:00,54.0,52.0,29.94,ESE,110,6.0,-999.0,93,0.00,,,-99.99,,2013-05-28 09:21:00,
2013-05-28 05:33:00,54.0,52.0,29.94,East,100,5.0,-999.0,93,0.00,,,-99.99,,2013-05-28 09:33:00,
2013-05-28 05:42:00,54.0,52.0,29.94,East,100,5.0,-999.0,93,0.00,,,-99.99,,2013-05-28 09:42:00,
2013-05-28 05:53:00,54.0,52.0,29.94,East,100,6.0,-999.0,93,0.00,,,-99.99,,2013-05-28 09:53:00,
2013-05-28 06:02:00,54.0,52.0,29.94,East,100,6.0,-999.0,93,0.00,,,-99.99,,2013-05-28 10:02:00,
2013-05-28 06:12:00,54.0,52.0,29.94,ESE,110,7.0,-999.0,93,0.00,,,-99.99,,2013-05-28 10:12:00,
2013-05-28 06:22:00,54.0,52.0,29.93,ESE,110,5.0,-999.0,93,0.00,,,-99.99,,2013-05-28 10:22:00,
2013-05-28 06:32:00,54.0,52.0,29.93,East,100,6.0,-999.0,93,0.00,,,-99.99,,2013-05-28 10:32:00,
2013-05-28 06:42:00,54.0,52.0,29.93,East,100,7.0,-999.0,93,0.00,,,-99.99,,2013-05-28 10:42:00,
2013-05-28 06:52:00,54.0,52.0,29.94,ESE,120,3.0,-999.0,93,0.00,,,-99.99,,2013-05-28 10:52:00,
2013-05-28 07:02:00,54.0,52.0,29.94,ESE,120,3.0,-999.0,93,0.00,,,-99.99,,2013-05-28 11:02:00,
2013-05-28 07:11:00,54.0,52.0,29.94,ESE,120,5.0,-999.0,93,0.00,,,-99.99,,2013-05-28 11:11:00,
2013-05-28 07:22:00,54.0,52.0,29.94,ESE,110,5.0,-999.0,93,0.00,,,-99.99,,2013-05-28 11:22:00,
2013-05-28 07:31:00,54.0,54.0,29.93,East,100,6.0,-999.0,100,0.00,,,-99.99,,2013-05-28 11:31:00,
2013-05-28 07:41:00,54.0,54.0,29.93,ESE,110,6.0,-999.0,100,0.00,,,-99.99,,2013-05-28 11:41:00,
2013-05-28 07:52:00,54.0,54.0,29.93,SE,130,6.0,-999.0,100,0.00,,,-99.99,,2013-05-28 11:52:00,
2013-05-28 08:01:00,54.0,54.0,29.93,SE,130,6.0,-999.0,100,0.00,,,-99.99,,2013-05-28 12:01:00,
2013-05-28 08:11:00,54.0,54.0,29.93,ESE,110,7.0,-999.0,100,0.00,,,0.00,,2013-05-28 12:11:00,
2013-05-28 08:21:00,54.0,54.0,29.93,SE,140,6.0,-999.0,100,0.00,,,0.00,,2013-05-28 12:21:00,
2013-05-28 08:31:00,54.0,54.0,29.94,ESE,110,6.0,-999.0,100,0.00,,,0.00,,2013-05-28 12:31:00,
2013-05-28 08:41:00,54.0,54.0,29.94,ESE,110,6.0,-999.0,100,0.00,,,0.00,,2013-05-28 12:41:00,
2013-05-28 08:51:00,54.0,54.0,29.94,ESE,110,6.0,-999.0,100,0.00,,,0.00,,2013-05-28 12:51:00,
2013-05-28 09:01:00,54.0,54.0,29.94,ESE,110,6.0,-999.0,100,0.00,,,0.00,,2013-05-28 13:01:00,
2013-05-28 09:11:00,54.0,54.0,29.93,East,100,5.0,-999.0,100,0.00,,,-99.99,,2013-05-28 13:11:00,
2013-05-28 09:21:00,54.0,54.0,29.91,East,80,8.0,-999.0,100,0.00,,,-99.99,,2013-05-28 13:21:00,
2013-05-28 09:32:00,54.0,54.0,29.90,East,80,8.0,-999.0,100,0.00,,,-99.99,,2013-05-28 13:32:00,
2013-05-28 09:42:00,54.0,54.0,29.91,East,90,6.0,-999.0,100,0.00,,,-99.99,,2013-05-28 13:42:00,
2013-05-28 09:52:00,54.0,54.0,29.91,East,100,5.0,-999.0,100,0.00,,,-99.99,,2013-05-28 13:52:00,
2013-05-28 10:01:00,54.0,54.0,29.91,East,100,5.0,-999.0,100,0.00,,,-99.99,,2013-05-28 14:01:00,
2013-05-28 10:11:00,55.0,54.0,29.91,East,100,7.0,-999.0,93,0.01,,,-99.99,,2013-05-28 14:11:00,
2013-05-28 10:21:00,55.0,54.0,29.89,East,100,8.0,-999.0,93,0.01,,,-99.99,,2013-05-28 14:21:00,
2013-05-28 10:32:00,55.0,55.0,29.89,East,90,8.0,-999.0,100,0.00,,,-99.99,,2013-05-28 14:32:00,
2013-05-28 10:41:00,55.0,55.0,29.89,East,100,7.0,-999.0,100,0.00,,,-99.99,,2013-05-28 14:41:00,
2013-05-28 10:51:00,55.0,55.0,29.89,East,100,8.0,-999.0,100,0.00,,,-99.99,,2013-05-28 14:51:00,
2013-05-28 11:01:00,55.0,55.0,29.89,East,100,8.0,-999.0,100,0.00,,,-99.99,,2013-05-28 15:01:00,
2013-05-28 11:11:00,55.0,55.0,29.90,East,90,5.0,-999.0,100,0.00,,,-99.99,,2013-05-28 15:11:00,
2013-05-28 11:21:00,55.0,55.0,29.90,East,90,6.0,-999.0,100,0.00,,,-99.99,,2013-05-28 15:21:00,
2013-05-28 11:32:00,55.0,55.0,29.90,East,90,5.0,-999.0,100,0.04,,,-99.99,,2013-05-28 15:32:00,
2013-05-28 11:42:00,55.0,55.0,29.90,East,100,7.0,-999.0,100,0.04,,,-99.99,,2013-05-28 15:42:00,
2013-05-28 11:52:00,55.0,55.0,29.91,SE,140,3.0,-999.0,100,0.10,,,-99.99,,2013-05-28 15:52:00,
2013-05-28 12:02:00,55.0,55.0,29.91,SE,140,3.0,-999.0,100,0.10,,,-99.99,,2013-05-28 16:02:00,
2013-05-28 12:12:00,55.0,55.0,29.86,East,100,8.0,17.0,100,0.16,,,-99.99,,2013-05-28 16:12:00,
2013-05-28 12:22:00,55.0,55.0,29.87,ESE,120,9.0,17.0,100,0.16,,,-99.99,,2013-05-28 16:22:00,
2013-05-28 12:32:00,57.0,55.0,29.85,ESE,110,9.0,-999.0,93,0.02,,,-99.99,,2013-05-28 16:32:00,
2013-05-28 12:42:00,57.0,55.0,29.85,ESE,110,8.0,-999.0,93,0.02,,,-99.99,,2013-05-28 16:42:00,
2013-05-28 12:52:00,57.0,55.0,29.87,North,0,0.0,16.0,93,0.05,,,-99.99,,2013-05-28 16:52:00,
2013-05-28 13:02:00,57.0,55.0,29.87,North,0,0.0,16.0,93,0.05,,,-99.99,,2013-05-28 17:02:00,
2013-05-28 13:11:00,57.0,55.0,29.84,ESE,110,10.0,-999.0,93,0.05,,,-99.99,,2013-05-28 17:11:00,
2013-05-28 13:21:00,57.0,57.0,29.89,North,0,0.0,-999.0,100,0.05,,,-99.99,,2013-05-28 17:21:00,
2013-05-28 13:31:00,57.0,57.0,29.88,ESE,120,6.0,-999.0,100,0.03,,,-99.99,,2013-05-28 17:31:00,
2013-05-28 13:41:00,57.0,57.0,29.88,ESE,120,7.0,-999.0,100,0.03,,,-99.99,,2013-05-28 17:41:00,
2013-05-28 13:51:00,57.0,57.0,29.84,East,100,8.0,-999.0,100,0.05,,,-99.99,,2013-05-28 17:51:00,
2013-05-28 14:01:00,57.0,57.0,29.84,East,100,8.0,-999.0,100,0.05,,,-99.99,,2013-05-28 18:01:00,
2013-05-28 14:11:00,59.0,59.0,29.84,SE,130,3.0,-999.0,100,0.07,,,-99.99,,2013-05-28 18:11:00,
2013-05-28 14:21:00,61.0,61.0,29.84,South,180,3.0,-999.0,100,0.07,,,-99.99,,2013-05-28 18:21:00,
2013-05-28 14:32:00,61.0,61.0,29.85,SSE,150,5.0,-999.0,100,0.01,,,-99.99,,2013-05-28 18:32:00,
2013-05-28 14:42:00,61.0,61.0,29.84,SSE,160,6.0,-999.0,100,0.01,,,-99.99,,2013-05-28 18:42:00,
2013-05-28 14:52:00,63.0,61.0,29.84,SSE,160,6.0,-999.0,93,0.02,,,-99.99,,2013-05-28 18:52:00,
2013-05-28 15:01:00,63.0,61.0,29.84,SSE,160,6.0,-999.0,93,0.02,,,-99.99,,2013-05-28 19:01:00,
2013-05-28 15:11:00,63.0,63.0,29.83,SSE,150,7.0,-999.0,100,0.03,,,-99.99,,2013-05-28 19:11:00,
2013-05-28 15:21:00,66.0,63.0,29.83,South,170,8.0,-999.0,88,0.03,,,-99.99,,2013-05-28 19:21:00,
2013-05-28 15:31:00,66.0,64.0,29.83,South,170,12.0,-999.0,93,0.01,,,-99.99,,2013-05-28 19:31:00,
2013-05-28 15:42:00,66.0,64.0,29.83,South,170,8.0,-999.0,93,0.01,,,-99.99,,2013-05-28 19:42:00,
2013-05-28 15:52:00,68.0,64.0,29.83,South,180,10.0,-999.0,88,0.01,,,-99.99,,2013-05-28 19:52:00,
2013-05-28 16:02:00,68.0,64.0,29.83,South,180,10.0,-999.0,88,0.01,,,-99.99,,2013-05-28 20:02:00,
2013-05-28 16:11:00,68.0,64.0,29.83,South,180,6.0,-999.0,88,0.02,,,-99.99,,2013-05-28 20:11:00,
2013-05-28 16:22:00,70.0,66.0,29.82,South,170,3.0,-999.0,88,0.02,,,-99.99,,2013-05-28 20:22:00,
2013-05-28 16:32:00,70.0,64.0,29.82,South,190,3.0,-999.0,82,0.01,,,-99.99,,2013-05-28 20:32:00,
2013-05-28 16:42:00,70.0,66.0,29.82,SSW,210,5.0,-999.0,88,0.01,,,-99.99,,2013-05-28 20:42:00,
2013-05-28 16:52:00,72.0,66.0,29.81,South,180,8.0,-999.0,83,0.02,,,-99.99,,2013-05-28 20:52:00,
2013-05-28 17:01:00,72.0,66.0,29.81,South,180,8.0,-999.0,83,0.02,,,-99.99,,2013-05-28 21:01:00,
2013-05-28 17:11:00,72.0,66.0,29.79,South,180,8.0,-999.0,83,0.02,,,-99.99,,2013-05-28 21:11:00,
2013-05-28 17:21:00,72.0,66.0,29.79,SSW,210,8.0,-999.0,83,0.02,,,-99.99,,2013-05-28 21:21:00,
2013-05-28 17:32:00,73.0,68.0,29.79,SSW,210,6.0,-999.0,83,0.01,,,-99.99,,2013-05-28 21:32:00,
2013-05-28 17:43:00,73.0,66.0,29.79,South,190,8.0,-999.0,78,0.01,,,-99.99,,2013-05-28 21:43:00,
2013-05-28 17:53:00,73.0,66.0,29.79,SSW,200,8.0,-999.0,78,0.02,,,-99.99,,2013-05-28 21:53:00,
2013-05-28 18:02:00,73.0,66.0,29.79,SSW,200,8.0,-999.0,78,0.02,,,-99.99,,2013-05-28 22:02:00,
2013-05-28 18:12:00,73.0,66.0,29.79,SSW,200,10.0,-999.0,78,0.02,,,-99.99,,2013-05-28 22:12:00,
2013-05-28 18:21:00,73.0,66.0,29.79,SSW,200,7.0,16.0,78,0.02,,,-99.99,,2013-05-28 22:21:00,
2013-05-28 18:32:00,73.0,66.0,29.79,SSW,210,7.0,16.0,78,0.01,,,-99.99,,2013-05-28 22:32:00,
2013-05-28 18:42:00,73.0,66.0,29.78,SSW,200,6.0,16.0,78,0.01,,,-99.99,,2013-05-28 22:42:00,
2013-05-28 18:52:00,73.0,66.0,29.78,SSW,200,5.0,-999.0,78,0.02,,,-99.99,,2013-05-28 22:52:00,
2013-05-28 19:02:00,73.0,66.0,29.78,SSW,200,5.0,-999.0,78,0.02,,,-99.99,,2013-05-28 23:02:00,
2013-05-28 19:11:00,73.0,66.0,29.78,South,190,5.0,-999.0,78,0.02,,,-99.99,,2013-05-28 23:11:00,
2013-05-28 19:21:00,72.0,66.0,29.78,SSW,200,5.0,-999.0,83,0.02,,,-99.99,,2013-05-28 23:21:00,
2013-05-28 19:31:00,72.0,66.0,29.78,SSW,200,5.0,-999.0,83,0.01,,,-99.99,,2013-05-28 23:31:00,
2013-05-28 19:41:00,73.0,68.0,29.78,SSW,200,5.0,-999.0,83,0.01,,,-99.99,,2013-05-28 23:41:00,
2013-05-28 19:52:00,73.0,68.0,29.79,SSW,200,5.0,-999.0,83,0.01,,,-99.99,,2013-05-28 23:52:00,
2013-05-28 20:01:00,73.0,68.0,29.79,SSW,200,5.0,-999.0,83,0.01,,,-99.99,,2013-05-29 00:01:00,
2013-05-28 20:11:00,72.0,68.0,29.78,SSW,200,5.0,-999.0,88,0.02,,,-99.99,,2013-05-29 00:11:00,
2013-05-28 20:21:00,72.0,66.0,29.78,SSW,200,5.0,-999.0,83,0.02,,,-99.99,,2013-05-29 00:21:00,
2013-05-28 20:31:00,72.0,66.0,29.78,South,190,5.0,-999.0,83,0.00,,,-99.99,,2013-05-29 00:31:00,
2013-05-28 20:41:00,72.0,66.0,29.78,SSW,200,5.0,-999.0,83,0.00,,,-99.99,,2013-05-29 00:41:00,
2013-05-28 20:51:00,72.0,66.0,29.78,SSW,200,3.0,-999.0,83,0.01,,,-99.99,,2013-05-29 00:51:00,
2013-05-28 21:01:00,72.0,66.0,29.78,SSW,200,3.0,-999.0,83,0.01,,,-99.99,,2013-05-29 01:01:00,
2013-05-28 21:11:00,72.0,68.0,29.77,SSW,200,5.0,-999.0,88,0.01,,,-99.99,,2013-05-29 01:11:00,
2013-05-28 21:21:00,72.0,70.0,29.78,North,0,0.0,-999.0,94,0.01,,,-99.99,,2013-05-29 01:21:00,
2013-05-28 21:31:00,70.0,70.0,29.76,North,0,0.0,-999.0,100,0.00,,,-99.99,,2013-05-29 01:31:00,
2013-05-28 21:41:00,70.0,70.0,29.77,North,0,0.0,-999.0,100,0.00,,,-99.99,,2013-05-29 01:41:00,
2013-05-28 21:52:00,70.0,70.0,29.76,North,0,0.0,-999.0,100,0.01,,,-99.99,,2013-05-29 01:52:00,
2013-05-28 22:02:00,70.0,70.0,29.76,North,0,0.0,-999.0,100,0.01,,,-99.99,,2013-05-29 02:02:00,
2013-05-28 22:11:00,70.0,70.0,29.79,SSW,210,7.0,-999.0,100,0.01,,,-99.99,,2013-05-29 02:11:00,
2013-05-28 22:21:00,70.0,70.0,29.78,South,170,3.0,-999.0,100,0.01,,,-99.99,,2013-05-29 02:21:00,
2013-05-28 22:31:00,70.0,70.0,29.78,SSW,200,3.0,-999.0,100,0.00,,,-99.99,,2013-05-29 02:31:00,
2013-05-28 22:41:00,70.0,70.0,29.78,SW,220,6.0,-999.0,100,0.00,,,-99.99,,2013-05-29 02:41:00,
2013-05-28 22:51:00,70.0,68.0,29.78,SW,220,5.0,-999.0,94,0.01,,,-99.99,,2013-05-29 02:51:00,
2013-05-28 23:01:00,70.0,68.0,29.78,SW,220,5.0,-999.0,94,0.01,,,-99.99,,2013-05-29 03:01:00,
2013-05-28 23:11:00,70.0,68.0,29.78,SSW,200,3.0,-999.0,94,0.01,,,-99.99,,2013-05-29 03:11:00,
2013-05-28 23:21:00,70.0,68.0,29.77,SSW,210,3.0,-999.0,94,0.01,,,-99.99,,2013-05-29 03:21:00,
2013-05-28 23:32:00,70.0,68.0,29.77,North,0,0.0,-999.0,94,0.00,,,-99.99,,2013-05-29 03:32:00,
2013-05-28 23:43:00,70.0,68.0,29.77,North,0,0.0,-999.0,94,0.00,,,-99.99,,2013-05-29 03:43:00,
2013-05-28 23:53:00,70.0,68.0,29.78,North,0,0.0,-999.0,94,0.01,,,-99.99,,2013-05-29 03:53:00,